createdAt,value
2023-02-02T00:02:08.668Z,89.60
2023-02-02T00:04:36.130Z,89.60
2023-02-02T00:07:05.284Z,89.50
2023-02-02T00:09:32.549Z,89.50
2023-02-02T00:11:59.764Z,89.30
2023-02-02T00:14:26.717Z,89.50
2023-02-02T00:16:57.044Z,89.50
2023-02-02T00:19:27.659Z,89.30
2023-02-02T00:21:54.992Z,89.50
2023-02-02T00:24:22.269Z,89.40
2023-02-02T00:26:58.838Z,89.10
2023-02-02T00:29:27.059Z,89.10
2023-02-02T00:31:53.861Z,89.30
2023-02-02T00:34:21.201Z,89.20
2023-02-02T00:36:48.276Z,89.20
2023-02-02T00:39:16.568Z,89.40
2023-02-02T00:41:43.395Z,89.20
2023-02-02T00:44:28.854Z,89.00
2023-02-02T00:46:55.534Z,89.20
2023-02-02T00:49:22.206Z,88.70
2023-02-02T00:51:48.888Z,88.80
2023-02-02T00:54:15.727Z,88.80
2023-02-02T00:56:42.829Z,88.70
2023-02-02T00:59:09.486Z,88.90
2023-02-02T01:01:36.268Z,88.80
2023-02-02T01:04:03.028Z,88.70
2023-02-02T01:06:29.783Z,88.90
2023-02-02T01:08:56.461Z,88.90
2023-02-02T01:11:23.516Z,89.10
2023-02-02T01:13:50.220Z,89.20
2023-02-02T01:16:16.974Z,89.10
2023-02-02T01:18:43.790Z,89.20
2023-02-02T01:21:11.168Z,89.50
2023-02-02T01:23:38.388Z,89.70
2023-02-02T01:26:06.253Z,89.70
2023-02-02T01:28:32.988Z,89.90
2023-02-02T01:31:05.130Z,89.90
2023-02-02T01:33:31.850Z,89.80
2023-02-02T01:35:58.474Z,89.70
2023-02-02T01:38:25.907Z,89.90
2023-02-02T01:40:54.042Z,89.80
2023-02-02T01:43:23.043Z,89.50
2023-02-02T01:45:50.248Z,89.60
2023-02-02T01:48:17.524Z,89.50
2023-02-02T01:50:44.514Z,89.50
2023-02-02T01:53:11.308Z,89.60
2023-02-02T01:55:39.475Z,89.50
2023-02-02T01:58:09.602Z,89.60
2023-02-02T02:00:36.915Z,89.50
2023-02-02T02:03:06.835Z,89.30
2023-02-02T02:05:40.227Z,89.30
2023-02-02T02:08:27.206Z,89.60
2023-02-02T02:10:53.831Z,89.70
2023-02-02T02:13:21.697Z,89.60
2023-02-02T02:16:17.181Z,89.40
2023-02-02T02:18:58.556Z,89.90
2023-02-02T02:21:48.051Z,90.00
2023-02-02T02:25:02.631Z,90.10
2023-02-02T02:27:35.443Z,90.10
2023-02-02T02:30:08.225Z,90.20
2023-02-02T02:32:34.833Z,90.10
2023-02-02T02:35:10.767Z,89.70
2023-02-02T02:37:38.003Z,89.90
2023-02-02T02:40:13.619Z,90.00
2023-02-02T02:42:43.661Z,89.70
2023-02-02T02:45:11.622Z,89.60
2023-02-02T02:47:38.644Z,89.50
2023-02-02T02:50:05.716Z,89.30
2023-02-02T02:52:33.058Z,89.70
2023-02-02T02:55:00.707Z,89.80
2023-02-02T02:57:46.255Z,90.00
2023-02-02T03:00:22.056Z,90.00
2023-02-02T03:02:51.698Z,90.00
2023-02-02T03:05:24.943Z,90.00
2023-02-02T03:08:04.209Z,90.00
2023-02-02T03:10:31.579Z,90.10
2023-02-02T03:12:58.194Z,89.80
2023-02-02T03:15:25.332Z,90.00
2023-02-02T03:17:53.221Z,89.80
2023-02-02T03:20:19.969Z,90.00
2023-02-02T03:22:46.628Z,90.10
2023-02-02T03:25:13.287Z,90.00
2023-02-02T03:27:40.006Z,90.00
2023-02-02T03:30:08.047Z,90.00
2023-02-02T03:32:34.827Z,90.10
2023-02-02T03:35:01.465Z,90.00
2023-02-02T03:37:28.220Z,90.00
2023-02-02T03:39:54.806Z,90.00
2023-02-02T03:42:21.409Z,90.00
2023-02-02T03:44:48.055Z,90.00
2023-02-02T03:47:14.655Z,90.00
2023-02-02T03:49:41.243Z,90.00
2023-02-02T03:52:08.047Z,90.00
2023-02-02T03:54:34.748Z,90.00
2023-02-02T03:57:01.350Z,90.00
2023-02-02T03:59:27.932Z,90.00
2023-02-02T04:01:54.523Z,90.00
2023-02-02T04:04:21.125Z,89.90
2023-02-02T04:06:47.725Z,90.00
2023-02-02T04:09:14.338Z,90.00
2023-02-02T04:11:40.984Z,90.10
2023-02-02T04:14:07.667Z,90.10
2023-02-02T04:16:37.119Z,90.30
2023-02-02T04:19:04.606Z,90.30
2023-02-02T04:21:34.840Z,90.20
2023-02-02T04:24:01.568Z,90.20
2023-02-02T04:26:28.496Z,90.20
2023-02-02T04:28:55.225Z,90.20
2023-02-02T04:31:21.857Z,90.30
2023-02-02T04:33:48.561Z,90.30
2023-02-02T04:36:15.177Z,90.30
2023-02-02T04:38:41.841Z,90.40
2023-02-02T04:41:09.663Z,90.50
2023-02-02T04:43:37.151Z,90.50
2023-02-02T04:46:04.237Z,90.50
2023-02-02T04:48:31.178Z,90.60
2023-02-02T04:50:58.562Z,90.60
2023-02-02T04:53:25.224Z,90.60
2023-02-02T04:55:51.867Z,90.60
2023-02-02T04:58:19.496Z,90.60
2023-02-02T05:00:46.201Z,90.70
2023-02-02T05:03:12.947Z,90.90
2023-02-02T05:05:39.627Z,91.10
2023-02-02T05:08:08.307Z,91.30
2023-02-02T05:10:35.078Z,91.40
2023-02-02T05:13:01.737Z,91.50
2023-02-02T05:15:28.403Z,91.60
2023-02-02T05:17:55.021Z,91.60
2023-02-02T05:20:21.679Z,91.60
2023-02-02T05:22:48.899Z,91.60
2023-02-02T05:25:15.880Z,91.60
2023-02-02T05:27:46.268Z,91.60
2023-02-02T05:30:13.349Z,91.60
2023-02-02T05:32:40.444Z,91.60
2023-02-02T05:35:07.493Z,91.60
2023-02-02T05:37:34.155Z,91.60
2023-02-02T05:40:03.973Z,91.60
2023-02-02T05:42:30.619Z,91.60
2023-02-02T05:44:57.267Z,91.60
2023-02-02T05:47:23.914Z,91.60
2023-02-02T05:49:50.559Z,91.70
2023-02-02T05:52:19.146Z,91.70
2023-02-02T05:54:45.888Z,91.80
2023-02-02T05:57:12.753Z,91.80
2023-02-02T05:59:39.382Z,91.80
2023-02-02T06:02:06.067Z,91.80
2023-02-02T06:04:32.729Z,91.80
2023-02-02T06:06:59.495Z,92.00
2023-02-02T06:09:26.228Z,92.00
2023-02-02T06:11:52.868Z,92.00
2023-02-02T06:14:19.551Z,92.10
2023-02-02T06:16:46.235Z,92.10
2023-02-02T06:19:12.965Z,92.30
2023-02-02T06:21:39.639Z,92.30
2023-02-02T06:24:06.482Z,92.20
2023-02-02T06:26:33.266Z,92.10
2023-02-02T06:29:00.013Z,92.20
2023-02-02T06:31:26.794Z,92.10
2023-02-02T06:33:57.293Z,92.10
2023-02-02T06:36:25.117Z,92.20
2023-02-02T06:38:52.899Z,92.20
2023-02-02T06:41:20.450Z,92.30
2023-02-02T06:43:47.612Z,92.40
2023-02-02T06:46:14.729Z,92.50
2023-02-02T06:48:41.598Z,92.50
2023-02-02T06:51:08.687Z,92.40
2023-02-02T06:53:35.361Z,92.40
2023-02-02T06:56:03.709Z,92.30
2023-02-02T06:58:31.082Z,92.30
2023-02-02T07:01:08.237Z,92.40
2023-02-02T07:03:35.334Z,92.40
2023-02-02T07:06:15.023Z,92.50
2023-02-02T07:08:42.048Z,92.40
2023-02-02T07:11:14.289Z,92.60
2023-02-02T07:13:43.283Z,92.70
2023-02-02T07:16:10.065Z,92.60
2023-02-02T07:18:39.722Z,92.60
2023-02-02T07:21:06.514Z,92.60
2023-02-02T07:23:33.551Z,92.60
2023-02-02T07:26:01.672Z,92.70
2023-02-02T07:28:28.412Z,92.70
2023-02-02T07:30:57.383Z,92.70
2023-02-02T07:33:24.061Z,92.70
2023-02-02T07:35:50.739Z,92.70
2023-02-02T07:38:17.449Z,92.70
2023-02-02T07:40:44.820Z,92.80
2023-02-02T07:43:11.593Z,92.80
2023-02-02T07:45:38.651Z,92.80
2023-02-02T07:48:05.622Z,92.80
2023-02-02T07:50:32.331Z,92.90
2023-02-02T07:53:00.672Z,92.90
2023-02-02T07:55:27.675Z,93.00
2023-02-02T07:57:55.534Z,93.10
2023-02-02T08:00:22.616Z,93.00
2023-02-02T08:02:49.814Z,92.90
2023-02-02T08:05:17.316Z,92.90
2023-02-02T08:07:44.820Z,92.90
2023-02-02T08:10:12.027Z,93.00
2023-02-02T08:12:38.704Z,93.10
2023-02-02T08:15:05.574Z,93.10
2023-02-02T08:17:32.342Z,93.00
2023-02-02T08:19:58.980Z,93.00
2023-02-02T08:22:25.669Z,93.00
2023-02-02T08:24:52.289Z,93.00
2023-02-02T08:27:18.944Z,93.10
2023-02-02T08:29:46.164Z,93.10
2023-02-02T08:32:13.017Z,93.30
2023-02-02T08:34:40.872Z,93.40
2023-02-02T08:37:07.706Z,93.50
2023-02-02T08:39:34.408Z,93.50
2023-02-02T08:42:01.237Z,93.50
2023-02-02T08:44:28.426Z,93.60
2023-02-02T08:47:14.694Z,93.40
2023-02-02T08:49:42.477Z,93.30
2023-02-02T08:52:09.445Z,93.30
2023-02-02T08:54:36.175Z,93.30
2023-02-02T08:57:02.865Z,93.30
2023-02-02T08:59:29.592Z,92.80
2023-02-02T09:01:56.616Z,92.70
2023-02-02T09:04:23.476Z,92.60
2023-02-02T09:06:50.266Z,92.70
2023-02-02T09:09:17.152Z,92.50
2023-02-02T09:11:44.472Z,92.40
2023-02-02T09:14:12.957Z,92.40
2023-02-02T09:16:40.012Z,92.40
2023-02-02T09:19:07.896Z,92.40
2023-02-02T09:21:37.366Z,92.20
2023-02-02T09:24:12.362Z,92.10
2023-02-02T09:26:40.634Z,92.20
2023-02-02T09:29:08.470Z,92.50
2023-02-02T09:31:36.649Z,92.50
2023-02-02T09:34:04.635Z,92.30
2023-02-02T09:36:31.749Z,92.40
2023-02-02T09:38:58.447Z,92.00
2023-02-02T09:41:37.305Z,91.60
2023-02-02T09:44:04.028Z,91.70
2023-02-02T09:46:46.137Z,91.60
2023-02-02T09:49:15.513Z,91.60
2023-02-02T09:51:46.167Z,92.00
2023-02-02T09:54:12.878Z,92.50
2023-02-02T09:56:41.922Z,92.90
2023-02-02T09:59:20.438Z,93.40
2023-02-02T10:01:51.477Z,93.90
2023-02-02T10:04:21.511Z,93.80
2023-02-02T10:06:50.215Z,93.60
2023-02-02T10:09:23.535Z,93.70
2023-02-02T10:12:06.555Z,93.90
2023-02-02T10:14:42.172Z,94.00
2023-02-02T10:17:21.007Z,93.80
2023-02-02T10:19:50.496Z,92.80
2023-02-02T10:22:23.167Z,92.10
2023-02-02T10:24:50.013Z,91.80
2023-02-02T10:27:22.807Z,91.60
2023-02-02T10:29:49.632Z,91.20
2023-02-02T10:32:23.121Z,91.30
2023-02-02T10:34:51.198Z,90.90
2023-02-02T10:37:20.956Z,90.70
2023-02-02T10:40:10.468Z,90.30
2023-02-02T10:42:40.173Z,90.40
2023-02-02T10:45:15.837Z,90.40
2023-02-02T10:47:42.512Z,90.10
2023-02-02T10:50:16.611Z,90.30
2023-02-02T10:52:52.526Z,90.20
2023-02-02T10:55:19.147Z,90.30
2023-02-02T10:58:03.538Z,90.40
2023-02-02T11:00:35.750Z,90.20
2023-02-02T11:03:04.764Z,90.40
2023-02-02T11:05:50.360Z,90.40
2023-02-02T11:08:21.573Z,90.00
2023-02-02T11:10:49.800Z,90.20
2023-02-02T11:13:25.201Z,90.00
2023-02-02T11:16:11.818Z,89.90
2023-02-02T11:18:38.554Z,89.80
2023-02-02T11:21:19.758Z,90.00
2023-02-02T11:23:57.849Z,89.80
2023-02-02T11:26:25.232Z,90.00
2023-02-02T11:28:53.751Z,89.40
2023-02-02T11:31:31.262Z,89.70
2023-02-02T11:34:24.398Z,89.60
2023-02-02T11:36:58.545Z,89.70
2023-02-02T11:39:26.225Z,89.00
2023-02-02T11:42:00.671Z,88.90
2023-02-02T11:44:28.295Z,88.50
2023-02-02T11:46:56.764Z,88.60
2023-02-02T11:49:24.081Z,88.60
2023-02-02T11:52:01.382Z,88.70
2023-02-02T11:54:35.181Z,89.10
2023-02-02T11:57:04.309Z,89.00
2023-02-02T11:59:42.178Z,89.40
2023-02-02T12:02:29.074Z,89.20
2023-02-02T12:05:14.811Z,88.80
2023-02-02T12:07:51.740Z,88.80
2023-02-02T12:10:36.365Z,89.00
2023-02-02T12:13:41.010Z,88.40
2023-02-02T12:16:32.384Z,88.80
2023-02-02T12:18:59.061Z,88.50
2023-02-02T12:21:35.308Z,88.20
2023-02-02T12:24:13.293Z,87.20
2023-02-02T12:26:41.423Z,87.30
2023-02-02T12:29:08.075Z,86.70
2023-02-02T12:31:53.809Z,87.00
2023-02-02T12:34:20.463Z,87.30
2023-02-02T12:37:03.360Z,87.30
2023-02-02T12:39:34.473Z,87.10
2023-02-02T12:42:20.047Z,87.40
2023-02-02T12:44:56.225Z,86.90
2023-02-02T12:47:29.768Z,86.50
2023-02-02T12:50:14.168Z,86.50
2023-02-02T12:53:13.527Z,86.40
2023-02-02T12:55:59.088Z,85.90
2023-02-02T12:58:25.951Z,85.90
2023-02-02T13:11:31.791Z,85.70
2023-02-02T13:14:00.228Z,85.60
2023-02-02T13:16:27.929Z,85.80
2023-02-02T13:18:57.240Z,85.40
2023-02-02T13:21:24.800Z,85.50
2023-02-02T13:23:53.532Z,86.10
2023-02-02T13:26:21.363Z,86.70
2023-02-02T13:28:54.206Z,87.60
2023-02-02T13:31:24.054Z,88.10
2023-02-02T13:33:56.350Z,88.50
2023-02-02T13:36:26.412Z,88.80
2023-02-02T13:38:58.717Z,89.10
2023-02-02T13:41:25.856Z,89.40
2023-02-02T13:43:59.738Z,90.00
2023-02-02T13:46:45.191Z,90.00
2023-02-02T13:49:16.374Z,90.00
2023-02-02T13:52:01.806Z,90.10
2023-02-02T13:54:34.600Z,89.90
2023-02-02T13:57:01.256Z,90.00
2023-02-02T14:00:03.814Z,89.70
2023-02-02T14:02:36.301Z,89.80
2023-02-02T14:05:04.487Z,89.80
2023-02-02T14:07:41.897Z,89.50
2023-02-02T14:10:21.889Z,89.30
2023-02-02T14:12:48.675Z,89.40
2023-02-02T14:15:15.787Z,89.10
2023-02-02T14:17:42.456Z,89.10
2023-02-02T14:20:28.142Z,89.10
2023-02-02T14:22:54.887Z,89.20
2023-02-02T14:25:33.764Z,89.40
2023-02-02T14:28:01.765Z,89.50
2023-02-02T14:30:38.780Z,89.60
2023-02-02T14:33:20.988Z,89.80
2023-02-02T14:35:47.644Z,89.90
2023-02-02T14:38:40.842Z,89.90
2023-02-02T14:41:47.057Z,89.90
2023-02-02T14:44:13.833Z,89.90
2023-02-02T14:46:44.431Z,90.00
2023-02-02T14:49:13.513Z,90.00
2023-02-02T14:52:09.974Z,90.00
2023-02-02T14:54:41.540Z,90.00
2023-02-02T14:57:23.279Z,90.10
2023-02-02T14:59:50.116Z,90.10
2023-02-02T15:02:19.086Z,90.20
2023-02-02T15:04:49.318Z,90.20
2023-02-02T15:07:25.297Z,90.20
2023-02-02T15:09:56.507Z,90.30
2023-02-02T15:12:26.330Z,90.30
2023-02-02T15:14:56.846Z,90.30
2023-02-02T15:17:48.858Z,90.30
2023-02-02T15:20:21.188Z,90.30
2023-02-02T15:22:47.977Z,90.30
2023-02-02T15:25:20.636Z,90.40
2023-02-02T15:27:56.954Z,90.40
2023-02-02T15:30:24.696Z,90.40
2023-02-02T15:32:51.755Z,90.50
2023-02-02T15:35:24.141Z,90.50
2023-02-02T15:37:55.811Z,90.50
2023-02-02T15:40:24.355Z,90.50
2023-02-02T15:43:00.275Z,90.60
2023-02-02T15:45:33.302Z,90.60
2023-02-02T15:48:01.639Z,90.60
2023-02-02T15:50:28.460Z,90.60
2023-02-02T15:52:55.301Z,90.70
2023-02-02T15:55:24.051Z,90.70
2023-02-02T15:57:54.282Z,90.80
2023-02-02T16:00:23.631Z,90.80
2023-02-02T16:02:57.841Z,90.90
2023-02-02T16:05:25.968Z,90.90
2023-02-02T16:08:03.809Z,90.90
2023-02-02T16:10:31.625Z,91.00
2023-02-02T16:12:58.625Z,91.00
2023-02-02T16:15:27.249Z,91.10
2023-02-02T16:17:58.172Z,91.10
2023-02-02T16:20:25.116Z,91.20
2023-02-02T16:22:52.543Z,91.30
2023-02-02T16:25:21.331Z,91.30
2023-02-02T16:27:48.711Z,91.30
2023-02-02T16:30:24.406Z,91.30
2023-02-02T16:32:51.253Z,91.40
2023-02-02T16:35:44.412Z,91.60
2023-02-02T16:38:34.496Z,91.70
2023-02-02T16:41:09.314Z,91.80
2023-02-02T16:43:40.141Z,91.90
2023-02-02T16:46:11.505Z,91.90
2023-02-02T16:48:44.978Z,92.00
2023-02-02T16:51:18.100Z,92.00
2023-02-02T16:54:05.057Z,92.10
2023-02-02T16:56:36.514Z,92.10
2023-02-02T16:59:14.956Z,92.20
2023-02-02T17:01:43.721Z,92.20
2023-02-02T17:04:22.143Z,92.20
2023-02-02T17:06:52.735Z,92.20
2023-02-02T17:09:37.352Z,92.10
2023-02-02T17:12:09.317Z,92.10
2023-02-02T17:14:49.341Z,92.00
2023-02-02T17:17:15.985Z,92.00
2023-02-02T17:19:42.653Z,92.00
2023-02-02T17:22:10.068Z,92.10
2023-02-02T17:24:37.111Z,92.10
2023-02-02T17:27:03.883Z,92.20
2023-02-02T17:29:30.685Z,92.20
2023-02-02T17:31:57.447Z,92.20
2023-02-02T17:34:25.070Z,92.20
2023-02-02T17:36:51.775Z,92.20
2023-02-02T17:39:18.523Z,92.20
2023-02-02T17:41:46.049Z,92.20
2023-02-02T17:44:12.804Z,92.20
2023-02-02T17:46:40.289Z,92.20
2023-02-02T17:49:07.097Z,92.30
2023-02-02T17:51:41.445Z,92.30
2023-02-02T17:54:12.256Z,92.40
2023-02-02T17:56:39.477Z,92.50
2023-02-02T17:59:06.613Z,92.50
2023-02-02T18:01:34.077Z,92.60
2023-02-02T18:04:00.951Z,92.60
2023-02-02T18:06:27.666Z,92.70
2023-02-02T18:08:54.461Z,92.80
2023-02-02T18:11:21.544Z,92.90
2023-02-02T18:13:48.282Z,93.00
2023-02-02T18:16:15.077Z,93.00
2023-02-02T18:18:41.931Z,93.10
2023-02-02T18:21:09.738Z,93.00
2023-02-02T18:23:36.609Z,93.00
2023-02-02T18:26:20.321Z,93.00
2023-02-02T18:28:50.182Z,93.00
2023-02-02T18:31:19.445Z,93.10
2023-02-02T18:33:47.125Z,93.10
2023-02-02T18:36:15.137Z,93.20
2023-02-02T18:38:45.183Z,93.40
2023-02-02T18:41:12.320Z,93.50
2023-02-02T18:43:39.031Z,93.60
2023-02-02T18:46:08.807Z,93.90
2023-02-02T18:48:35.887Z,94.10
2023-02-02T18:51:06.737Z,94.10
2023-02-02T18:53:33.608Z,94.10
2023-02-02T18:56:07.579Z,94.30
2023-02-02T18:58:35.053Z,94.20
2023-02-02T19:01:08.920Z,94.40
2023-02-02T19:03:36.826Z,94.40
2023-02-02T19:06:22.592Z,94.50
2023-02-02T19:08:49.337Z,94.60
2023-02-02T19:11:17.678Z,94.60
2023-02-02T19:13:44.614Z,94.70
2023-02-02T19:16:37.820Z,94.70
2023-02-02T19:19:07.972Z,94.80
2023-02-02T19:21:34.844Z,94.90
2023-02-02T19:24:01.681Z,95.00
2023-02-02T19:26:29.470Z,95.00
2023-02-02T19:29:00.402Z,95.00
2023-02-02T19:31:27.959Z,95.00
2023-02-02T19:33:54.858Z,95.10
2023-02-02T19:36:25.613Z,95.10
2023-02-02T19:38:56.191Z,95.20
2023-02-02T19:41:24.334Z,95.20
2023-02-02T19:44:02.115Z,95.30
2023-02-02T19:46:29.910Z,95.20
2023-02-02T19:49:11.920Z,95.20
2023-02-02T19:51:50.915Z,95.20
2023-02-02T19:54:17.668Z,95.30
2023-02-02T19:56:44.341Z,95.40
2023-02-02T19:59:16.217Z,95.50
2023-02-02T20:01:45.988Z,95.60
2023-02-02T20:04:18.224Z,95.70
2023-02-02T20:06:58.042Z,95.70
2023-02-02T20:09:28.701Z,95.70
2023-02-02T20:11:56.676Z,95.70
2023-02-02T20:14:33.216Z,95.80
2023-02-02T20:17:00.942Z,95.90
2023-02-02T20:19:29.508Z,95.90
2023-02-02T20:21:56.489Z,96.00
2023-02-02T20:24:37.204Z,96.00
2023-02-02T20:27:13.274Z,95.90
2023-02-02T20:29:44.223Z,95.90
2023-02-02T20:32:17.752Z,95.90
2023-02-02T20:34:45.015Z,95.90
2023-02-02T20:37:11.672Z,95.80
2023-02-02T20:40:08.137Z,95.70
2023-02-02T20:42:34.768Z,95.80
2023-02-02T20:45:01.475Z,95.90
2023-02-02T20:47:28.177Z,96.00
2023-02-02T20:49:54.973Z,96.10
2023-02-02T20:52:23.977Z,96.20
2023-02-02T20:54:51.445Z,96.20
2023-02-02T20:57:18.651Z,96.20
2023-02-02T20:59:45.581Z,96.20
2023-02-02T21:02:19.420Z,96.20
2023-02-02T21:04:47.333Z,96.20
2023-02-02T21:07:16.844Z,96.20
2023-02-02T21:09:44.318Z,96.20
2023-02-02T21:12:11.441Z,96.10
2023-02-02T21:14:38.965Z,96.10
2023-02-02T21:17:14.920Z,96.10
2023-02-02T21:19:42.802Z,96.20
2023-02-02T21:22:09.850Z,96.20
2023-02-02T21:24:36.552Z,96.20
2023-02-02T21:27:04.642Z,96.20
2023-02-02T21:29:32.044Z,96.30
2023-02-02T21:32:01.478Z,96.40
2023-02-02T21:34:29.079Z,96.40
2023-02-02T21:36:58.129Z,96.50
2023-02-02T21:39:29.701Z,96.60
2023-02-02T21:42:08.490Z,96.60
2023-02-02T21:44:36.173Z,96.70
2023-02-02T21:47:03.042Z,96.70
2023-02-02T21:49:38.569Z,96.70
2023-02-02T21:52:14.514Z,96.80
2023-02-02T21:54:41.496Z,96.70
2023-02-02T21:57:14.325Z,96.90
2023-02-02T21:59:41.092Z,96.90
2023-02-02T22:02:17.081Z,96.90
2023-02-02T22:04:43.854Z,96.90
2023-02-02T22:07:14.725Z,97.00
2023-02-02T22:09:42.847Z,97.10
2023-02-02T22:12:23.248Z,97.10
2023-02-02T22:14:51.786Z,97.10
2023-02-02T22:17:23.261Z,97.10
2023-02-02T22:20:01.113Z,97.20
2023-02-02T22:22:32.728Z,97.20
2023-02-02T22:25:02.275Z,97.30
2023-02-02T22:27:42.482Z,97.30
2023-02-02T22:30:28.409Z,97.50
2023-02-02T22:32:55.497Z,97.50
2023-02-02T22:35:22.411Z,97.60
2023-02-02T22:37:49.144Z,97.70
2023-02-02T22:40:16.538Z,97.70
2023-02-02T22:42:43.554Z,97.80
2023-02-02T22:45:10.378Z,98.10
2023-02-02T22:47:37.446Z,98.20
2023-02-02T22:50:04.315Z,98.20
2023-02-02T22:52:31.021Z,98.30
2023-02-02T22:54:57.717Z,98.50
2023-02-02T22:57:24.548Z,98.60
2023-02-02T22:59:51.302Z,98.80
2023-02-02T23:02:18.092Z,99.00
2023-02-02T23:04:44.827Z,99.20
2023-02-02T23:07:11.556Z,99.50
2023-02-02T23:09:38.266Z,99.90
2023-02-02T23:12:05.133Z,99.90
2023-02-02T23:14:31.868Z,99.90
2023-02-02T23:16:58.572Z,99.90
2023-02-02T23:19:25.372Z,99.90
2023-02-02T23:21:52.524Z,99.90
2023-02-02T23:24:19.256Z,99.90
2023-02-02T23:26:45.932Z,99.90
2023-02-02T23:29:12.602Z,99.90
2023-02-02T23:31:39.347Z,99.90
2023-02-02T23:34:06.159Z,99.90
2023-02-02T23:36:32.894Z,99.90
2023-02-02T23:38:59.616Z,99.90
2023-02-02T23:41:26.424Z,99.90
2023-02-02T23:43:53.334Z,99.90
2023-02-02T23:46:20.317Z,99.90
2023-02-02T23:48:47.399Z,99.90
2023-02-02T23:51:14.360Z,99.90
2023-02-02T23:53:42.265Z,99.90
2023-02-02T23:56:09.813Z,99.90
2023-02-02T23:58:36.552Z,99.90
